createdAt,value
2018-08-17T00:01:16.987Z,72.42
2018-08-17T00:02:54.543Z,72.57
2018-08-17T00:04:31.706Z,73.07
2018-08-17T00:06:08.651Z,73.00
2018-08-17T00:07:44.247Z,73.37
2018-08-17T00:09:20.007Z,73.40
2018-08-17T00:10:59.432Z,73.46
2018-08-17T00:12:36.833Z,73.70
2018-08-17T00:14:13.910Z,73.92
2018-08-17T00:15:52.213Z,74.36
2018-08-17T00:17:27.372Z,74.16
2018-08-17T00:19:05.257Z,74.60
2018-08-17T00:20:41.791Z,74.98
2018-08-17T00:22:18.212Z,75.15
2018-08-17T00:23:55.246Z,75.54
2018-08-17T00:25:30.237Z,75.07
2018-08-17T00:27:05.885Z,76.05
2018-08-17T00:28:43.271Z,75.97
2018-08-17T00:30:22.345Z,76.29
2018-08-17T00:31:57.615Z,76.33
2018-08-17T00:33:37.322Z,76.73
2018-08-17T00:35:12.448Z,76.41
2018-08-17T00:36:47.939Z,76.56
2018-08-17T00:38:25.697Z,77.07
2018-08-17T00:40:02.653Z,76.98
2018-08-17T00:41:39.027Z,77.13
2018-08-17T00:43:15.451Z,77.45
2018-08-17T00:44:51.425Z,77.81
2018-08-17T00:46:27.179Z,78.10
2018-08-17T00:48:02.599Z,78.95
2018-08-17T00:49:39.574Z,78.64
2018-08-17T00:51:15.658Z,79.37
2018-08-17T00:52:55.058Z,79.45
2018-08-17T00:54:31.479Z,79.99
2018-08-17T00:56:07.064Z,79.37
2018-08-17T00:57:43.173Z,79.16
2018-08-17T00:59:19.017Z,80.07
2018-08-17T01:00:54.967Z,79.46
2018-08-17T01:02:30.112Z,79.88
2018-08-17T01:04:07.610Z,80.22
2018-08-17T01:05:43.410Z,80.23
2018-08-17T01:07:21.242Z,79.94
2018-08-17T01:08:58.205Z,79.92
2018-08-17T01:10:34.096Z,80.66
2018-08-17T01:12:10.573Z,80.90
2018-08-17T01:13:48.225Z,80.80
2018-08-17T01:15:24.222Z,81.16
2018-08-17T01:16:59.689Z,81.96
2018-08-17T01:18:34.885Z,81.46
2018-08-17T01:20:14.459Z,81.67
2018-08-17T01:21:49.981Z,81.98
2018-08-17T01:23:27.512Z,82.19
2018-08-17T01:25:04.983Z,81.99
2018-08-17T01:26:40.410Z,82.52
2018-08-17T01:28:18.504Z,82.57
2018-08-17T01:29:54.581Z,81.93
2018-08-17T01:31:29.671Z,83.03
2018-08-17T01:34:49.029Z,82.63
2018-08-17T01:36:24.847Z,82.81
2018-08-17T01:38:00.355Z,83.08
2018-08-17T01:39:35.340Z,82.34
2018-08-17T01:41:11.957Z,82.23
2018-08-17T01:42:47.502Z,83.32
2018-08-17T01:44:24.876Z,83.21
2018-08-17T01:46:00.156Z,82.83
2018-08-17T01:47:36.226Z,82.59
2018-08-17T01:49:11.382Z,83.20
2018-08-17T01:50:46.762Z,82.72
2018-08-17T01:52:22.191Z,82.43
2018-08-17T01:53:57.314Z,82.79
2018-08-17T01:55:33.358Z,81.93
2018-08-17T01:57:11.228Z,81.84
2018-08-17T01:58:46.904Z,82.11
2018-08-17T02:00:23.308Z,81.84
2018-08-17T02:01:58.611Z,81.82
2018-08-17T02:03:34.695Z,81.91
2018-08-17T02:05:11.312Z,82.33
2018-08-17T02:06:46.161Z,81.62
2018-08-17T02:08:22.546Z,81.61
2018-08-17T02:09:57.463Z,82.32
2018-08-17T02:11:32.315Z,82.17
2018-08-17T02:13:07.887Z,81.71
2018-08-17T02:14:43.030Z,81.68
2018-08-17T02:16:18.009Z,81.64
2018-08-17T02:17:52.886Z,81.88
2018-08-17T02:19:27.880Z,81.61
2018-08-17T02:21:03.237Z,81.65
2018-08-17T02:22:38.253Z,81.42
2018-08-17T02:24:13.245Z,81.44
2018-08-17T02:25:48.309Z,81.95
2018-08-17T02:27:23.913Z,81.33
2018-08-17T02:28:59.316Z,81.49
2018-08-17T02:30:34.268Z,81.99
2018-08-17T02:32:10.325Z,81.54
2018-08-17T02:33:46.174Z,81.70
2018-08-17T02:35:21.873Z,81.87
2018-08-17T02:36:56.756Z,82.56
2018-08-17T02:38:32.102Z,82.48
2018-08-17T02:40:07.233Z,82.47
2018-08-17T02:41:42.339Z,82.00
2018-08-17T02:43:17.584Z,82.81
2018-08-17T02:44:53.389Z,82.65
2018-08-17T02:46:28.344Z,82.10
2018-08-17T02:48:03.322Z,82.23
2018-08-17T02:49:38.935Z,82.44
2018-08-17T02:51:14.262Z,81.95
2018-08-17T02:52:49.222Z,82.50
2018-08-17T02:54:24.213Z,81.95
2018-08-17T02:55:59.243Z,81.76
2018-08-17T02:57:34.198Z,81.51
2018-08-17T02:59:10.287Z,81.64
2018-08-17T03:00:45.860Z,81.38
2018-08-17T03:02:21.203Z,81.06
2018-08-17T03:03:56.573Z,81.23
2018-08-17T03:05:31.672Z,81.59
2018-08-17T03:07:07.209Z,81.52
2018-08-17T03:08:42.479Z,82.00
2018-08-17T03:10:17.489Z,81.07
2018-08-17T03:11:52.454Z,81.30
2018-08-17T03:13:27.811Z,81.14
2018-08-17T03:15:05.342Z,81.13
2018-08-17T03:16:41.179Z,81.17
2018-08-17T03:18:16.953Z,81.14
2018-08-17T03:19:51.978Z,80.92
2018-08-17T03:21:27.287Z,81.09
2018-08-17T03:23:02.181Z,80.59
2018-08-17T03:24:37.605Z,80.51
2018-08-17T03:26:12.540Z,80.49
2018-08-17T03:27:47.665Z,80.58
2018-08-17T03:29:23.095Z,80.69
2018-08-17T03:30:58.019Z,80.10
2018-08-17T03:32:33.137Z,79.92
2018-08-17T03:34:08.137Z,80.27
2018-08-17T03:35:43.180Z,79.48
2018-08-17T03:37:19.595Z,79.18
2018-08-17T03:38:54.674Z,79.29
2018-08-17T03:40:30.150Z,79.02
2018-08-17T03:42:05.334Z,78.93
2018-08-17T03:43:40.750Z,78.75
2018-08-17T03:45:21.388Z,79.20
2018-08-17T03:46:56.728Z,78.39
2018-08-17T03:48:33.037Z,78.38
2018-08-17T03:50:09.662Z,77.97
2018-08-17T03:51:44.942Z,77.76
2018-08-17T03:53:21.437Z,77.55
2018-08-17T03:54:56.394Z,77.06
2018-08-17T03:56:31.472Z,77.43
2018-08-17T03:58:06.562Z,77.12
2018-08-17T03:59:41.954Z,77.50
2018-08-17T04:01:16.970Z,76.51
2018-08-17T04:02:53.356Z,76.39
2018-08-17T04:04:28.477Z,76.52
2018-08-17T04:06:03.684Z,76.69
2018-08-17T04:07:38.798Z,75.64
2018-08-17T04:09:13.757Z,75.68
2018-08-17T04:10:48.643Z,75.17
2018-08-17T04:12:24.571Z,74.48
2018-08-17T04:13:59.640Z,74.70
2018-08-17T04:15:36.337Z,74.78
2018-08-17T04:17:11.324Z,75.09
2018-08-17T04:18:52.276Z,75.31
2018-08-17T04:20:29.416Z,76.16
2018-08-17T04:22:04.343Z,76.17
2018-08-17T04:23:39.336Z,77.29
2018-08-17T04:25:14.705Z,77.75
2018-08-17T04:26:49.685Z,78.15
2018-08-17T04:28:25.095Z,77.95
2018-08-17T04:30:00.042Z,78.33
2018-08-17T04:31:35.078Z,78.47
2018-08-17T04:33:10.529Z,78.27
2018-08-17T04:34:45.698Z,78.31
2018-08-17T04:36:20.832Z,79.00
2018-08-17T04:37:56.355Z,78.63
2018-08-17T04:39:32.530Z,79.02
2018-08-17T04:41:08.782Z,78.90
2018-08-17T04:42:43.802Z,78.92
2018-08-17T04:44:18.985Z,79.44
2018-08-17T04:45:55.183Z,79.24
2018-08-17T04:47:31.317Z,79.86
2018-08-17T04:49:08.199Z,79.92
2018-08-17T04:50:46.612Z,80.68
2018-08-17T04:52:21.781Z,81.20
2018-08-17T04:53:57.029Z,81.26
2018-08-17T04:55:33.501Z,81.48
2018-08-17T04:57:09.023Z,81.71
2018-08-17T04:58:45.477Z,81.60
2018-08-17T05:00:20.445Z,82.22
2018-08-17T05:01:55.976Z,81.77
2018-08-17T05:03:31.936Z,82.81
2018-08-17T05:05:10.497Z,82.07
2018-08-17T05:06:46.300Z,82.21
2018-08-17T05:08:21.366Z,82.32
2018-08-17T05:09:58.500Z,83.00
2018-08-17T05:11:33.536Z,82.93
2018-08-17T05:13:10.759Z,82.67
2018-08-17T05:14:45.824Z,82.60
2018-08-17T05:16:21.631Z,83.07
2018-08-17T05:17:56.638Z,82.80
2018-08-17T05:19:32.042Z,82.58
2018-08-17T05:21:08.712Z,82.88
2018-08-17T05:22:43.804Z,82.64
2018-08-17T05:24:18.843Z,82.91
2018-08-17T05:25:53.890Z,82.88
2018-08-17T05:27:29.230Z,82.93
2018-08-17T05:29:06.125Z,82.79
2018-08-17T05:30:41.155Z,82.71
2018-08-17T05:32:16.077Z,83.02
2018-08-17T05:33:51.481Z,82.85
2018-08-17T05:35:29.287Z,82.58
2018-08-17T05:37:04.480Z,82.64
2018-08-17T05:38:40.556Z,82.60
2018-08-17T05:40:15.540Z,82.08
2018-08-17T05:41:55.468Z,81.76
2018-08-17T05:43:34.681Z,81.56
2018-08-17T05:45:15.121Z,82.42
2018-08-17T05:46:50.142Z,81.98
2018-08-17T05:48:25.125Z,82.14
2018-08-17T05:50:00.296Z,81.77
2018-08-17T05:51:35.787Z,80.96
2018-08-17T05:53:11.828Z,81.01
2018-08-17T05:54:46.829Z,81.21
2018-08-17T05:56:24.234Z,80.65
2018-08-17T05:58:00.037Z,80.91
2018-08-17T06:01:02.267Z,80.14
2018-08-17T06:02:40.874Z,80.16
2018-08-17T06:04:16.458Z,80.00
2018-08-17T06:05:51.854Z,80.19
2018-08-17T06:07:27.571Z,79.39
2018-08-17T06:09:03.399Z,79.55
2018-08-17T06:10:39.217Z,79.06
2018-08-17T06:12:14.487Z,78.83
2018-08-17T06:13:49.779Z,79.00
2018-08-17T06:15:26.785Z,78.97
2018-08-17T06:17:02.081Z,78.58
2018-08-17T06:18:40.193Z,78.83
2018-08-17T06:20:16.168Z,78.53
2018-08-17T06:21:51.728Z,77.97
2018-08-17T06:23:27.296Z,77.30
2018-08-17T06:25:08.332Z,77.22
2018-08-17T06:26:46.644Z,76.63
2018-08-17T06:28:22.073Z,76.71
2018-08-17T06:29:59.565Z,75.95
2018-08-17T06:31:34.784Z,75.61
2018-08-17T06:33:10.303Z,74.98
2018-08-17T06:34:45.430Z,75.29
2018-08-17T06:36:22.001Z,74.94
2018-08-17T06:38:09.892Z,75.46
2018-08-17T06:39:45.844Z,75.34
2018-08-17T06:41:24.608Z,74.80
2018-08-17T06:43:00.394Z,74.66
2018-08-17T06:44:37.725Z,74.65
2018-08-17T06:46:12.679Z,75.01
2018-08-17T06:47:49.364Z,74.85
2018-08-17T06:49:24.612Z,75.05
2018-08-17T06:50:59.701Z,75.09
2018-08-17T06:52:34.903Z,74.94
2018-08-17T06:54:09.959Z,75.08
2018-08-17T06:55:45.243Z,75.40
2018-08-17T06:57:22.708Z,76.32
2018-08-17T06:58:59.799Z,76.24
2018-08-17T07:00:34.707Z,77.09
2018-08-17T07:02:11.593Z,76.87
2018-08-17T07:03:48.216Z,77.20
2018-08-17T07:05:26.894Z,77.77
2018-08-17T07:07:05.265Z,77.61
2018-08-17T07:08:40.950Z,77.81
2018-08-17T07:10:16.318Z,78.70
2018-08-17T07:11:53.281Z,78.14
2018-08-17T07:13:28.764Z,79.14
2018-08-17T07:15:07.303Z,79.37
2018-08-17T07:16:42.578Z,79.50
2018-08-17T07:18:19.707Z,79.69
2018-08-17T07:19:55.215Z,79.58
2018-08-17T07:21:32.319Z,78.70
2018-08-17T07:23:09.715Z,78.14
2018-08-17T07:24:51.662Z,77.30
2018-08-17T07:26:29.804Z,76.32
2018-08-17T07:28:08.038Z,74.02
2018-08-17T07:29:46.599Z,73.19
2018-08-17T07:31:28.048Z,70.84
2018-08-17T07:33:06.502Z,70.25
2018-08-17T07:34:47.257Z,69.86
2018-08-17T07:36:23.539Z,68.59
2018-08-17T07:38:00.551Z,66.01
2018-08-17T07:39:35.667Z,65.46
2018-08-17T07:41:13.613Z,65.89
2018-08-17T07:42:50.443Z,65.56
2018-08-17T07:44:27.380Z,65.37
2018-08-17T07:46:05.688Z,66.99
2018-08-17T07:47:43.505Z,67.46
2018-08-17T07:49:19.428Z,67.94
2018-08-17T07:50:55.233Z,69.25
2018-08-17T07:52:32.593Z,69.34
2018-08-17T07:54:11.611Z,71.21
2018-08-17T07:55:47.634Z,71.85
2018-08-17T07:57:22.832Z,72.41
2018-08-17T07:58:58.588Z,72.95
2018-08-17T08:02:10.821Z,74.70
2018-08-17T08:03:46.456Z,76.27
2018-08-17T08:05:23.737Z,77.28
2018-08-17T08:06:59.063Z,77.75
2018-08-17T08:08:40.834Z,79.44
2018-08-17T08:10:20.074Z,79.84
2018-08-17T08:11:59.861Z,80.10
2018-08-17T08:13:41.176Z,80.69
2018-08-17T08:15:18.061Z,81.12
2018-08-17T08:16:59.723Z,80.85
2018-08-17T08:18:37.383Z,81.24
2018-08-17T08:20:24.123Z,81.40
2018-08-17T08:22:04.315Z,81.25
2018-08-17T08:23:41.249Z,81.14
2018-08-17T08:25:19.634Z,80.37
2018-08-17T08:26:59.952Z,80.87
2018-08-17T08:28:35.847Z,81.05
2018-08-17T08:30:16.416Z,80.73
2018-08-17T08:31:54.131Z,80.65
2018-08-17T08:33:32.124Z,80.52
2018-08-17T08:35:10.321Z,80.39
2018-08-17T08:36:46.064Z,80.15
2018-08-17T08:38:21.808Z,80.61
2018-08-17T08:40:01.835Z,79.28
2018-08-17T08:41:39.327Z,78.47
2018-08-17T08:43:16.467Z,78.34
2018-08-17T08:44:53.616Z,76.95
2018-08-17T08:46:31.146Z,76.33
2018-08-17T08:48:07.721Z,75.20
2018-08-17T08:49:45.045Z,74.27
2018-08-17T08:51:24.993Z,73.85
2018-08-17T08:53:01.143Z,71.92
2018-08-17T08:54:36.594Z,70.67
2018-08-17T08:56:14.888Z,69.56
2018-08-17T08:57:51.253Z,69.29
2018-08-17T08:59:27.275Z,68.54
2018-08-17T09:01:05.701Z,67.38
2018-08-17T09:02:44.142Z,66.72
2018-08-17T09:04:23.442Z,65.05
2018-08-17T09:05:58.704Z,64.68
2018-08-17T09:07:35.031Z,64.10
2018-08-17T09:09:11.659Z,64.74
2018-08-17T09:12:34.505Z,62.56
2018-08-17T09:14:12.002Z,61.40
2018-08-17T09:15:48.018Z,61.01
2018-08-17T09:17:24.537Z,62.06
2018-08-17T09:19:02.927Z,60.99
2018-08-17T09:20:39.567Z,61.15
2018-08-17T09:22:20.878Z,59.82
2018-08-17T09:23:59.555Z,60.19
2018-08-17T09:25:37.142Z,60.86
2018-08-17T09:27:15.363Z,59.96
2018-08-17T09:28:51.915Z,59.38
2018-08-17T09:30:28.430Z,59.31
2018-08-17T09:32:05.608Z,58.36
2018-08-17T09:33:50.437Z,59.57
2018-08-17T09:35:27.768Z,59.73
2018-08-17T09:37:07.448Z,60.36
2018-08-17T09:38:43.971Z,60.69
2018-08-17T09:40:22.865Z,61.28
2018-08-17T09:42:01.407Z,61.40
2018-08-17T09:43:36.928Z,60.18
2018-08-17T09:45:24.025Z,60.11
2018-08-17T09:47:00.405Z,61.24
2018-08-17T09:48:36.959Z,61.69
2018-08-17T09:50:14.385Z,61.11
2018-08-17T09:51:49.912Z,57.71
2018-08-17T09:53:28.176Z,58.74
2018-08-17T09:55:05.727Z,58.91
2018-08-17T09:56:44.940Z,58.58
2018-08-17T09:58:21.944Z,59.59
2018-08-17T09:59:59.198Z,58.30
2018-08-17T10:01:39.770Z,57.37
2018-08-17T10:03:50.507Z,57.24
2018-08-17T10:05:32.584Z,56.85
2018-08-17T10:08:53.464Z,58.74
2018-08-17T10:10:32.033Z,58.59
2018-08-17T10:12:08.613Z,57.93
2018-08-17T10:13:49.996Z,57.28
2018-08-17T10:15:26.507Z,57.66
2018-08-17T10:17:03.353Z,58.71
2018-08-17T10:18:45.504Z,59.73
2018-08-17T10:20:24.562Z,59.41
2018-08-17T10:22:01.642Z,59.42
2018-08-17T10:23:38.349Z,60.74
2018-08-17T10:25:22.476Z,60.80
2018-08-17T10:27:00.525Z,62.07
2018-08-17T10:28:39.338Z,61.13
2018-08-17T10:30:20.980Z,60.95
2018-08-17T10:32:02.273Z,60.20
2018-08-17T10:33:41.556Z,58.60
2018-08-17T10:35:29.390Z,56.55
2018-08-17T10:37:05.903Z,56.06
2018-08-17T10:38:43.372Z,55.63
2018-08-17T10:40:21.048Z,56.32
2018-08-17T10:41:57.777Z,55.05
2018-08-17T10:43:38.512Z,55.37
2018-08-17T10:45:18.501Z,53.74
2018-08-17T10:46:56.993Z,56.73
2018-08-17T10:48:33.414Z,55.39
2018-08-17T10:50:13.538Z,54.04
2018-08-17T10:51:51.259Z,56.16
2018-08-17T10:53:34.448Z,56.45
2018-08-17T10:55:25.877Z,55.58
2018-08-17T10:57:03.474Z,56.46
2018-08-17T10:58:39.315Z,55.85
2018-08-17T11:00:20.491Z,55.38
2018-08-17T11:01:55.702Z,56.43
2018-08-17T11:03:32.489Z,54.84
2018-08-17T11:05:09.761Z,55.49
2018-08-17T11:06:46.392Z,55.36
2018-08-17T11:08:25.820Z,56.50
2018-08-17T11:10:01.633Z,58.34
2018-08-17T11:11:38.459Z,57.51
2018-08-17T11:13:15.707Z,56.88
2018-08-17T11:14:50.974Z,56.86
2018-08-17T11:16:29.033Z,57.16
2018-08-17T11:18:25.636Z,55.86
2018-08-17T11:20:05.491Z,56.63
2018-08-17T11:21:41.437Z,56.28
2018-08-17T11:23:18.270Z,56.51
2018-08-17T11:24:54.091Z,56.99
2018-08-17T11:26:34.546Z,57.24
2018-08-17T11:28:11.451Z,58.42
2018-08-17T11:29:51.915Z,59.35
2018-08-17T11:31:35.940Z,58.00
2018-08-17T11:33:12.308Z,57.11
2018-08-17T11:34:54.509Z,58.71
2018-08-17T11:36:34.879Z,59.30
2018-08-17T11:38:13.108Z,61.03
2018-08-17T11:39:52.648Z,62.48
2018-08-17T11:41:33.969Z,63.19
2018-08-17T11:43:10.232Z,63.41
2018-08-17T11:44:46.640Z,64.38
2018-08-17T11:46:26.669Z,64.98
2018-08-17T11:48:02.613Z,63.90
2018-08-17T11:49:40.070Z,64.79
2018-08-17T11:51:16.564Z,63.95
2018-08-17T11:52:58.837Z,64.20
2018-08-17T11:54:36.009Z,64.44
2018-08-17T11:56:11.947Z,65.09
2018-08-17T11:57:48.375Z,64.38
2018-08-17T11:59:27.254Z,65.51
2018-08-17T12:01:07.530Z,66.79
2018-08-17T12:02:44.367Z,66.27
2018-08-17T12:04:27.611Z,65.97
2018-08-17T12:06:03.928Z,63.91
2018-08-17T12:07:45.635Z,63.89
2018-08-17T12:09:22.522Z,63.76
2018-08-17T12:11:07.258Z,64.22
2018-08-17T12:12:44.225Z,64.44
2018-08-17T12:14:20.698Z,64.68
2018-08-17T12:16:00.532Z,64.45
2018-08-17T12:17:38.147Z,64.38
2018-08-17T12:19:16.261Z,65.28
2018-08-17T12:20:51.379Z,65.18
2018-08-17T12:22:33.198Z,64.87
2018-08-17T12:24:11.426Z,64.91
2018-08-17T12:26:00.353Z,64.43
2018-08-17T12:27:39.723Z,63.97
2018-08-17T12:29:17.932Z,64.38
2018-08-17T12:30:55.267Z,64.63
2018-08-17T12:32:34.552Z,62.99
2018-08-17T12:34:12.081Z,62.37
2018-08-17T12:35:55.157Z,62.44
2018-08-17T12:37:31.962Z,63.55
2018-08-17T12:39:16.149Z,64.00
2018-08-17T12:40:54.268Z,64.06
2018-08-17T12:42:40.002Z,63.33
2018-08-17T12:44:15.906Z,64.66
2018-08-17T12:45:53.771Z,65.02
2018-08-17T12:47:29.902Z,64.13
2018-08-17T12:49:06.742Z,65.30
2018-08-17T12:50:44.221Z,65.01
2018-08-17T12:52:23.203Z,64.24
2018-08-17T12:53:59.324Z,65.55
2018-08-17T12:57:24.733Z,65.08
2018-08-17T12:59:02.188Z,66.18
2018-08-17T13:00:37.815Z,64.45
2018-08-17T13:02:21.622Z,65.48
2018-08-17T13:03:59.098Z,65.15
2018-08-17T13:05:34.876Z,65.18
2018-08-17T13:07:11.781Z,66.16
2018-08-17T13:08:50.025Z,65.73
2018-08-17T13:10:26.985Z,65.63
2018-08-17T13:12:03.390Z,66.12
2018-08-17T13:13:41.670Z,66.56
2018-08-17T13:15:21.738Z,65.92
2018-08-17T13:16:59.365Z,64.78
2018-08-17T13:18:37.214Z,66.20
2018-08-17T13:20:12.401Z,65.72
2018-08-17T13:21:52.314Z,66.18
2018-08-17T13:23:27.513Z,64.89
2018-08-17T13:25:03.420Z,65.80
2018-08-17T13:26:40.561Z,66.47
2018-08-17T13:28:17.309Z,65.77
2018-08-17T13:29:53.902Z,65.60
2018-08-17T13:31:29.638Z,66.45
2018-08-17T13:33:21.021Z,66.60
2018-08-17T13:34:58.764Z,67.21
2018-08-17T13:36:34.929Z,65.95
2018-08-17T13:38:10.375Z,65.87
2018-08-17T13:39:47.618Z,65.52
2018-08-17T13:41:24.542Z,67.00
2018-08-17T13:43:04.600Z,66.97
2018-08-17T13:44:41.251Z,65.41
2018-08-17T13:46:17.317Z,67.04
2018-08-17T13:47:53.860Z,65.87
2018-08-17T13:49:31.493Z,65.53
2018-08-17T13:51:08.988Z,66.84
2018-08-17T13:52:47.248Z,66.12
2018-08-17T13:54:24.520Z,65.74
2018-08-17T13:56:03.582Z,66.37
2018-08-17T13:57:42.747Z,65.87
2018-08-17T13:59:19.798Z,65.97
2018-08-17T14:00:58.840Z,65.78
2018-08-17T14:02:36.299Z,65.00
2018-08-17T14:04:13.115Z,64.96
2018-08-17T14:05:48.954Z,65.45
2018-08-17T14:07:27.869Z,65.65
2018-08-17T14:09:03.681Z,65.46
2018-08-17T14:10:38.905Z,66.08
2018-08-17T14:12:17.299Z,67.04
2018-08-17T14:13:58.451Z,66.20
2018-08-17T14:15:34.441Z,66.24
2018-08-17T14:17:10.070Z,66.85
2018-08-17T14:18:46.266Z,65.91
2018-08-17T14:20:29.343Z,65.35
2018-08-17T14:22:05.251Z,65.22
2018-08-17T14:23:43.229Z,64.48
2018-08-17T14:25:18.932Z,65.47
2018-08-17T14:26:59.065Z,65.71
2018-08-17T14:28:41.760Z,64.89
2018-08-17T14:30:25.712Z,64.90
2018-08-17T14:32:06.250Z,63.65
2018-08-17T14:33:44.514Z,63.77
2018-08-17T14:35:22.326Z,63.63
2018-08-17T14:37:01.979Z,64.46
2018-08-17T14:38:39.176Z,64.73
2018-08-17T14:40:20.759Z,65.17
2018-08-17T14:42:01.212Z,64.17
2018-08-17T14:43:44.425Z,65.21
2018-08-17T14:45:26.000Z,65.43
2018-08-17T14:47:07.715Z,64.94
2018-08-17T14:48:43.504Z,64.80
2018-08-17T14:50:19.668Z,64.40
2018-08-17T14:51:57.056Z,65.39
2018-08-17T14:53:34.538Z,64.89
2018-08-17T14:55:11.854Z,64.97
2018-08-17T14:56:49.131Z,65.76
2018-08-17T14:58:32.034Z,65.95
2018-08-17T15:00:11.901Z,66.58
2018-08-17T15:01:52.606Z,66.07
2018-08-17T15:03:30.757Z,66.69
2018-08-17T15:05:07.993Z,66.89
2018-08-17T15:06:48.481Z,66.49
2018-08-17T15:08:27.645Z,66.98
2018-08-17T15:10:05.018Z,66.61
2018-08-17T15:11:44.409Z,67.34
2018-08-17T15:13:21.703Z,67.76
2018-08-17T15:14:57.511Z,66.17
2018-08-17T15:16:33.134Z,67.31
2018-08-17T15:18:10.273Z,66.60
2018-08-17T15:19:48.377Z,65.78
2018-08-17T15:21:27.385Z,66.20
2018-08-17T15:23:08.095Z,65.71
2018-08-17T15:24:44.778Z,65.83
2018-08-17T15:26:27.451Z,65.01
2018-08-17T15:28:04.000Z,66.31
2018-08-17T15:29:43.276Z,66.12
2018-08-17T15:31:24.503Z,67.43
2018-08-17T15:33:01.977Z,66.10
2018-08-17T15:34:38.516Z,65.47
2018-08-17T15:36:20.077Z,65.68
2018-08-17T15:37:59.046Z,66.35
2018-08-17T15:39:34.409Z,65.77
2018-08-17T15:41:13.337Z,66.95
2018-08-17T15:42:52.038Z,65.96
2018-08-17T15:44:31.107Z,66.17
2018-08-17T15:46:12.049Z,66.69
2018-08-17T15:47:56.107Z,66.44
2018-08-17T15:49:34.214Z,65.73
2018-08-17T15:51:12.576Z,65.71
2018-08-17T15:52:54.279Z,64.43
2018-08-17T15:54:32.789Z,64.44
2018-08-17T15:56:15.173Z,64.48
2018-08-17T15:57:52.398Z,64.05
2018-08-17T15:59:27.933Z,63.71
2018-08-17T16:01:09.490Z,63.96
2018-08-17T16:02:46.548Z,64.04
2018-08-17T16:04:24.723Z,63.63
2018-08-17T16:06:02.596Z,63.48
2018-08-17T16:07:39.050Z,63.77
2018-08-17T16:09:17.671Z,63.10
2018-08-17T16:10:53.399Z,64.05
2018-08-17T16:12:29.332Z,64.21
2018-08-17T16:14:05.459Z,64.82
2018-08-17T16:15:42.607Z,64.87
2018-08-17T16:17:18.101Z,63.62
2018-08-17T16:18:53.906Z,64.79
2018-08-17T16:20:32.372Z,64.91
2018-08-17T16:22:08.285Z,64.83
2018-08-17T16:23:44.026Z,65.43
2018-08-17T16:25:19.312Z,66.49
2018-08-17T16:28:41.693Z,66.62
2018-08-17T16:30:23.138Z,65.05
2018-08-17T16:32:06.247Z,65.22
2018-08-17T16:33:42.868Z,64.34
2018-08-17T16:35:19.107Z,64.78
2018-08-17T16:36:55.803Z,64.52
2018-08-17T16:38:35.317Z,63.96
2018-08-17T16:40:26.783Z,64.39
2018-08-17T16:42:03.744Z,65.11
2018-08-17T16:43:47.825Z,65.28
2018-08-17T16:45:25.087Z,65.73
2018-08-17T16:47:00.333Z,65.75
2018-08-17T16:48:44.105Z,65.91
2018-08-17T16:50:23.398Z,65.33
2018-08-17T16:51:59.652Z,65.62
2018-08-17T16:53:37.345Z,66.19
2018-08-17T16:55:23.301Z,67.29
2018-08-17T16:57:06.544Z,67.25
2018-08-17T16:58:45.932Z,67.16
2018-08-17T17:01:24.968Z,67.80
2018-08-17T17:03:05.970Z,68.65
2018-08-17T17:04:43.176Z,68.68
2018-08-17T17:06:22.085Z,68.37
2018-08-17T17:08:05.294Z,69.51
2018-08-17T17:09:46.440Z,69.40
2018-08-17T17:11:23.518Z,69.64
2018-08-17T17:13:00.113Z,68.64
2018-08-17T17:14:36.975Z,68.92
2018-08-17T17:18:53.380Z,69.43
2018-08-17T17:20:37.275Z,68.56
2018-08-17T17:22:17.135Z,68.57
2018-08-17T17:23:58.179Z,68.33
2018-08-17T17:25:35.848Z,67.79
2018-08-17T17:27:14.184Z,67.96
2018-08-17T17:28:57.385Z,68.51
2018-08-17T17:30:54.083Z,68.18
2018-08-17T17:32:33.844Z,67.21
2018-08-17T17:34:12.527Z,67.36
2018-08-17T17:35:54.523Z,66.54
2018-08-17T17:37:32.888Z,66.66
2018-08-17T17:39:13.977Z,66.34
2018-08-17T17:42:03.480Z,65.52
2018-08-17T17:43:41.271Z,65.95
2018-08-17T17:45:24.557Z,64.91
2018-08-17T17:47:02.311Z,64.20
2018-08-17T17:48:41.351Z,65.27
2018-08-17T17:50:18.044Z,65.09
2018-08-17T17:51:57.923Z,64.05
2018-08-17T17:53:38.185Z,64.46
2018-08-17T17:55:22.683Z,63.97
2018-08-17T17:57:04.270Z,64.10
2018-08-17T17:58:39.587Z,63.55
2018-08-17T18:00:22.408Z,63.94
2018-08-17T18:01:59.467Z,64.39
2018-08-17T18:03:37.427Z,64.75
2018-08-17T18:05:15.450Z,64.21
2018-08-17T18:06:57.580Z,63.41
2018-08-17T18:08:45.450Z,63.93
2018-08-17T18:10:29.536Z,64.51
2018-08-17T18:12:09.424Z,64.41
2018-08-17T18:13:49.184Z,64.24
2018-08-17T18:15:33.042Z,63.65
2018-08-17T18:17:15.760Z,64.17
2018-08-17T18:18:55.457Z,64.82
2018-08-17T18:20:32.043Z,64.60
2018-08-17T18:22:10.233Z,64.45
2018-08-17T18:23:58.312Z,64.28
2018-08-17T18:25:35.351Z,64.92
2018-08-17T18:27:13.764Z,64.94
2018-08-17T18:28:54.473Z,64.85
2018-08-17T18:30:31.488Z,64.70
2018-08-17T18:32:09.385Z,64.99
2018-08-17T18:33:52.301Z,64.66
2018-08-17T18:35:29.727Z,64.67
2018-08-17T18:37:17.674Z,64.85
2018-08-17T18:38:57.566Z,65.08
2018-08-17T18:40:38.477Z,65.41
2018-08-17T18:42:15.425Z,65.52
2018-08-17T18:43:54.776Z,65.93
2018-08-17T18:45:33.327Z,65.82
2018-08-17T18:47:14.611Z,66.60
2018-08-17T18:48:53.327Z,67.34
2018-08-17T18:50:37.682Z,67.75
2018-08-17T18:52:17.745Z,67.87
2018-08-17T18:53:55.052Z,68.75
2018-08-17T18:55:33.493Z,69.08
2018-08-17T18:57:15.077Z,69.45
2018-08-17T18:58:53.298Z,69.39
2018-08-17T19:00:32.161Z,68.24
2018-08-17T19:02:15.377Z,68.75
2018-08-17T19:03:53.396Z,69.18
2018-08-17T19:05:32.328Z,68.64
2018-08-17T19:07:10.780Z,69.40
2018-08-17T19:08:48.088Z,69.57
2018-08-17T19:10:23.520Z,69.67
2018-08-17T19:12:04.288Z,69.76
2018-08-17T19:13:47.536Z,70.90
2018-08-17T19:15:25.198Z,70.62
2018-08-17T19:17:08.838Z,70.91
2018-08-17T19:18:50.227Z,71.43
2018-08-17T19:20:33.641Z,71.60
2018-08-17T19:22:10.644Z,72.58
2018-08-17T19:23:51.163Z,72.03
2018-08-17T19:25:30.343Z,72.86
2018-08-17T19:27:08.444Z,72.87
2018-08-17T19:28:54.793Z,72.46
2018-08-17T19:30:35.706Z,72.52
2018-08-17T19:32:14.256Z,72.71
2018-08-17T19:33:54.728Z,73.48
2018-08-17T19:37:47.087Z,74.20
2018-08-17T19:39:34.504Z,74.29
2018-08-17T19:41:12.266Z,75.13
2018-08-17T19:42:51.393Z,74.63
2018-08-17T19:44:32.720Z,75.07
2018-08-17T19:46:15.537Z,75.23
2018-08-17T19:47:54.992Z,76.45
2018-08-17T19:49:34.469Z,76.10
2018-08-17T19:51:16.665Z,75.83
2018-08-17T19:52:56.887Z,77.03
2018-08-17T19:54:34.599Z,76.61
2018-08-17T19:56:13.252Z,77.04
2018-08-17T19:57:52.538Z,78.01
2018-08-17T19:59:33.941Z,78.20
2018-08-17T20:01:15.605Z,78.43
2018-08-17T20:02:51.654Z,77.88
2018-08-17T20:04:32.603Z,78.86
2018-08-17T20:06:15.632Z,78.91
2018-08-17T20:07:51.460Z,78.69
2018-08-17T20:09:31.920Z,79.23
2018-08-17T20:11:10.451Z,79.29
2018-08-17T20:12:52.942Z,80.31
2018-08-17T20:14:31.854Z,80.37
2018-08-17T20:16:45.191Z,80.46
2018-08-17T20:18:33.707Z,80.92
2018-08-17T20:20:16.892Z,80.50
2018-08-17T20:21:54.306Z,81.63
2018-08-17T20:23:34.326Z,81.89
2018-08-17T20:25:16.379Z,81.77
2018-08-17T20:26:56.704Z,81.96
2018-08-17T20:28:34.702Z,81.95
2018-08-17T20:30:23.452Z,82.03
2018-08-17T20:32:01.659Z,82.10
2018-08-17T20:33:40.540Z,81.88
2018-08-17T20:35:16.905Z,81.99
2018-08-17T20:36:54.931Z,82.43
2018-08-17T20:38:33.486Z,83.58
2018-08-17T20:40:11.752Z,83.40
2018-08-17T20:41:47.862Z,83.53
2018-08-17T20:43:23.773Z,83.48
2018-08-17T20:45:05.951Z,83.24
2018-08-17T20:46:42.766Z,84.10
2018-08-17T20:48:18.026Z,84.04
2018-08-17T20:49:56.694Z,84.06
2018-08-17T20:51:35.067Z,84.24
2018-08-17T20:53:13.128Z,84.41
2018-08-17T20:54:50.050Z,83.72
2018-08-17T20:56:34.173Z,83.96
2018-08-17T20:58:21.319Z,84.28
2018-08-17T21:00:02.356Z,84.63
2018-08-17T21:01:52.250Z,85.40
2018-08-17T21:03:30.861Z,85.27
2018-08-17T21:05:11.324Z,85.21
2018-08-17T21:06:48.022Z,85.64
2018-08-17T21:08:27.710Z,85.05
2018-08-17T21:10:06.529Z,85.37
2018-08-17T21:11:52.282Z,85.30
2018-08-17T21:13:31.041Z,86.17
2018-08-17T21:15:18.032Z,86.52
2018-08-17T21:16:55.911Z,86.23
2018-08-17T21:18:38.793Z,85.98
2018-08-17T21:20:20.906Z,86.27
2018-08-17T21:21:59.777Z,86.72